Inver Grove Heights, Minnesota
Current Conditions -  °F | °C
As of 3:30 AM on Monday 24 Nov 2014 (Local Time) from KSGS Reporting Station
Overcast Overcast  
Wind Chill: 23°   Ceiling: 1500
Heat Index: 33°   Visibility: 10mi
Dew Point: 29°   Wind: 13mph
Humidity: 86%   Direction: 300°WNW
Pressure: 29.29"   Gusts: 22mph
Location:  44.83°N, 93.06°W
Report Text: KSGS 240930Z AUTO 30011G19KT 10SM OVC015 00/M02 A2929 RMK AO2 T00031018
Loading
Personal Weather Stations






























Interactive Weather Map New forecast layout! Learn more

10-Day Weather Forecast

Advertisements
Track Severe Weather on mobile